Airfield :
LOGIN :

Register | Disclaimer

   EN    FR    IT 

 










Legend :    VFR   Marginal VFR   IFR   Intensive IFR   Very Intensive IFR
Visi :
Ceiling :
>= 8 km
>= 3000ft
5 to 8 km
1000 to 3000 ft
1500m to 5 km
500 to 1000 ft
800 to 1500m
200 to 500 ft
< 800m
< 200 ft
Symbols :   Thunderstorms  Fog  Heavy snow  Heavy precipitations  Wind > 20 kt
SIGMETs :     Misc.  Thunderstorms  Icing  Turbulence  Mountain Waves  Volcanic Ashes







- Airport Elevation : 1247 ft
- IATA code : PRG


LKPR - Praha Ruzyne

CURRENT METAR :
  • 200530Z 30004KT CAVOK 09/07 Q1018 NOSIG

EXPIRED METARs :
  • 200500Z 29005KT CAVOK 09/07 Q1018 NOSIG
  • 200430Z 29006KT CAVOK 09/06 Q1018 NOSIG
  • 200400Z 28007KT CAVOK 09/06 Q1018 NOSIG
  • 200330Z 28007KT CAVOK 09/06 Q1018 NOSIG
  • 200300Z 30005KT CAVOK 08/06 Q1017 NOSIG
  • 200230Z 30007KT CAVOK 08/05 Q1017 NOSIG

TAF TAF LKPR
Valid from the 20 at 06:00 until the 21 at 12:00 UTC


200500Z 2006/2112 29006KT CAVOK
TEMPO 2006/2020 32012KT
TEMPO 2009/2020 9000 -SHRA BKN030
No reported NOTAMs for that airfield.
1 SIGMET reported for the Praha FIR (LKAA) :
 
Severe icing
LKAA SIGMET 1 VALID 200303/200703 LKPW
LKAA PRAHA FIR SEV ICE FCST SE OF LINE N5037 E01603 - N4859 E01508 FL070/140 MOV N NC=



MET'MAP, your aeronautical weather chart ! - Copyright ORBIFLY December 2007 - Disclaimer

ORBIFLY MET'MAP TEAM :

Programming & Development : Alexandra Zaïnal
Concept & Development : Baudouin d'Aumeries
Co-Development & Prog : Marc-Olivier Méhu
Technical & hardware support : Manuel Goepfert

Contact : metmap@orbifly.com




SOURCES & CREDITS :

   NOAA